Aérodrome :
LOGIN :

S'inscrire | Disclaimer

   EN    FR    IT 

 










Légende :    VFR   VFR Marginal   IFR   IFR Intensif   IFR Très Intensif
Visi : 
Plafond : 
>= 8 km
>= 3000ft
5 à 8 km
1000 à 3000 ft
1500m à 5 km
500 à 1000 ft
800 à 1500m
200 à 500 ft
< 800m
< 200 ft
Symboles :   Orages  Brouillard  Fortes neiges  Fortes précipitations  Vent > 20 kt
SIGMETs :   Divers  Orages  Givrage  Turbulence  Onde Orograph.  Cendres Volcan.






- Altitude de l'aérodrome : 74 ft
- Code IATA : EIN


EHEH - Eindhoven

DERNIER METAR :
  • 261355Z AUTO 14002KT 9999 FEW039 BKN054 OVC061 21/15 Q1012 BLU TEMPO 25018G32KT 2000 TSRAGR SCT020CB BKN030

METARs EXPIRÉS :
  • 261338Z AUTO 11003KT 9999 FEW027CB BKN059 BKN085 21/15 Q1013 BLU TEMPO 22015G25KT 4500 SHRA SCT030CB
  • 261325Z AUTO 17003KT 170V270 9999 FEW014 FEW020CB SCT026 BKN054 21/16 Q1013 RERA REDZ BLU TEMPO 22015G25KT 4500 SHRA SCT030CB
  • 261317Z AUTO 20003KT 180V260 9999 RA FEW015CB SCT036 BKN054 20/17 Q1013 BLU TEMPO 22015G25KT 4500 SHRA SCT030CB
  • 261255Z AUTO 13006KT 110V200 9999 FEW039 OVC094 20/14 Q1013 BLU TEMPO 22015G25KT 4500 SHRA SCT030CB
  • 261225Z AUTO 12006KT 090V180 9999 OVC099 20/14 Q1013 BLU TEMPO 22015G25KT 4500 SHRA SCT030CB
  • 261214Z AUTO 12007KT 030V160 9999 OVC099 21/14 Q1013 BLU TEMPO 22015G25KT 4500 SHRA SCT030CB
  • 261155Z AUTO 12006KT 070V170 9999 BKN099 OVC100 21/14 Q1014 BLU TEMPO 21015G25KT 4500 SHRA SCT030CB
  • 261125Z AUTO 11005KT 060V190 9999 FEW070 SCT081 OVC100 20/14 Q1014 REDZ BLU NOSIG
  • 261055Z AUTO 12005KT 110V180 9999 -RA FEW033 SCT057 BKN074 19/14 Q1014 RERA REDZ BLU NOSIG
  • 261025Z AUTO 14007KT 080V230 9999 DZRA FEW052 BKN071 BKN078 20/13 Q1014 BLU NOSIG
  • 260955Z AUTO 13006KT 120V200 9999 SCT078 BKN084 OVC092 20/13 Q1014 BLU NOSIG
  • 260925Z AUTO 15006KT 130V210 9999 SCT092 OVC120 20/13 Q1014 BLU NOSIG

TAF TAF EHEH
Valide du 26 à 12h jusqu'au 27 à 18h UTC


261138Z 2612/2718 15006KT 9999 FEW035
TEMPO 2612/2619 22015G25KT 4000 SHRA SCT030CB BKN040
PROB40
TEMPO 2612/2618 25018G32KT 2000 TSRAGR SCT020CB BKN030
BECMG 2616/2618 22005KT
PROB40 2621/2702 1800 BR MIFG
TEMPO 2712/2718 FEW015 SCT025CB



MET'MAP, la Météo Aéronautique d'un coup d'oeil ! - Copyright ORBIFLY Décembre 2007 - Disclaimer

ORBIFLY MET'MAP TEAM :

Programmation & Développement : Alexandra Zaïnal
Sur une idée originale de : Baudouin d'Aumeries
Soutien technique & logistique : Manuel Goepfert
Assistance : Marc-Olivier Méhu




SOURCES & CREDITS :

   NOAA